sensor_id;sensor_type;location;lat;lon;timestamp;pressure;altitude;pressure_sealevel;temperature;humidity
64368;BME280;50692;53.314;-6.300;2023-02-12T00:02:03;103257.94;;;10.64;59.42
64368;BME280;50692;53.314;-6.300;2023-02-12T00:04:49;103260.56;;;10.64;59.44
64368;BME280;50692;53.314;-6.300;2023-02-12T00:07:34;103262.34;;;10.65;59.53
64368;BME280;50692;53.314;-6.300;2023-02-12T00:10:20;103255.28;;;10.64;59.47
64368;BME280;50692;53.314;-6.300;2023-02-12T00:13:06;103257.94;;;10.65;59.67
64368;BME280;50692;53.314;-6.300;2023-02-12T00:15:52;103265.00;;;10.65;59.82
64368;BME280;50692;53.314;-6.300;2023-02-12T00:18:38;103264.97;;;10.66;60.02
64368;BME280;50692;53.314;-6.300;2023-02-12T00:21:24;103264.97;;;10.66;60.10
64368;BME280;50692;53.314;-6.300;2023-02-12T00:24:10;103271.16;;;10.65;60.31
64368;BME280;50692;53.314;-6.300;2023-02-12T00:26:55;103268.50;;;10.65;60.18
64368;BME280;50692;53.314;-6.300;2023-02-12T00:29:41;103260.56;;;10.65;60.26
64368;BME280;50692;53.314;-6.300;2023-02-12T00:32:27;103265.88;;;10.65;59.89
64368;BME280;50692;53.314;-6.300;2023-02-12T00:35:13;103259.75;;;10.62;59.53
64368;BME280;50692;53.314;-6.300;2023-02-12T00:37:59;103254.41;;;10.65;59.55
64368;BME280;50692;53.314;-6.300;2023-02-12T00:40:44;103261.50;;;10.64;59.46
64368;BME280;50692;53.314;-6.300;2023-02-12T00:43:30;103252.66;;;10.64;59.50
64368;BME280;50692;53.314;-6.300;2023-02-12T00:46:16;103254.41;;;10.65;59.67
64368;BME280;50692;53.314;-6.300;2023-02-12T00:49:02;103256.16;;;10.66;59.78
64368;BME280;50692;53.314;-6.300;2023-02-12T00:51:48;103251.78;;;10.65;59.75
64368;BME280;50692;53.314;-6.300;2023-02-12T00:54:34;103252.66;;;10.65;59.48
64368;BME280;50692;53.314;-6.300;2023-02-12T00:57:20;103253.53;;;10.63;59.40
64368;BME280;50692;53.314;-6.300;2023-02-12T01:00:06;103233.28;;;10.62;59.06
64368;BME280;50692;53.314;-6.300;2023-02-12T01:02:52;103243.94;;;10.55;58.95
64368;BME280;50692;53.314;-6.300;2023-02-12T01:05:38;103240.38;;;10.56;59.11
64368;BME280;50692;53.314;-6.300;2023-02-12T01:08:24;103243.03;;;10.58;59.12
64368;BME280;50692;53.314;-6.300;2023-02-12T01:11:11;103241.25;;;10.59;58.95
64368;BME280;50692;53.314;-6.300;2023-02-12T01:13:57;103241.19;;;10.65;58.97
64368;BME280;50692;53.314;-6.300;2023-02-12T01:16:44;103235.00;;;10.66;59.11
64368;BME280;50692;53.314;-6.300;2023-02-12T01:19:30;103227.06;;;10.66;59.31
64368;BME280;50692;53.314;-6.300;2023-02-12T01:22:16;103221.78;;;10.66;59.54
64368;BME280;50692;53.314;-6.300;2023-02-12T01:25:03;103222.69;;;10.65;59.76
64368;BME280;50692;53.314;-6.300;2023-02-12T01:27:52;103211.19;;;10.66;59.96
64368;BME280;50692;53.314;-6.300;2023-02-12T01:30:38;103219.16;;;10.64;60.16
64368;BME280;50692;53.314;-6.300;2023-02-12T01:33:24;103206.81;;;10.63;60.51
64368;BME280;50692;53.314;-6.300;2023-02-12T01:36:10;103210.28;;;10.67;60.16
64368;BME280;50692;53.314;-6.300;2023-02-12T01:38:56;103212.09;;;10.63;60.32
64368;BME280;50692;53.314;-6.300;2023-02-12T01:41:44;103211.22;;;10.63;60.37
64368;BME280;50692;53.314;-6.300;2023-02-12T01:44:31;103203.31;;;10.61;60.29
64368;BME280;50692;53.314;-6.300;2023-02-12T01:47:17;103206.84;;;10.60;60.15
64368;BME280;50692;53.314;-6.300;2023-02-12T01:50:06;103196.34;;;10.55;59.96
64368;BME280;50692;53.314;-6.300;2023-02-12T01:52:54;103191.06;;;10.54;60.05
64368;BME280;50692;53.314;-6.300;2023-02-12T01:55:42;103187.56;;;10.52;60.00
64368;BME280;50692;53.314;-6.300;2023-02-12T01:58:35;103195.50;;;10.53;59.64
64368;BME280;50692;53.314;-6.300;2023-02-12T02:01:28;103184.00;;;10.54;59.65
64368;BME280;50692;53.314;-6.300;2023-02-12T02:04:18;103187.56;;;10.53;59.54
64368;BME280;50692;53.314;-6.300;2023-02-12T02:07:07;103185.78;;;10.52;59.48
64368;BME280;50692;53.314;-6.300;2023-02-12T02:09:54;103177.84;;;10.54;59.59
64368;BME280;50692;53.314;-6.300;2023-02-12T02:12:41;103179.66;;;10.50;59.60
64368;BME280;50692;53.314;-6.300;2023-02-12T02:15:48;103179.56;;;10.56;59.92
64368;BME280;50692;53.314;-6.300;2023-02-12T02:18:49;103180.47;;;10.57;59.91
64368;BME280;50692;53.314;-6.300;2023-02-12T02:31:29;103178.97;;;10.36;60.37
64368;BME280;50692;53.314;-6.300;2023-02-12T02:34:27;103180.75;;;10.34;60.58
64368;BME280;50692;53.314;-6.300;2023-02-12T02:37:22;103173.72;;;10.33;60.27
64368;BME280;50692;53.314;-6.300;2023-02-12T02:40:12;103181.53;;;10.41;60.24
64368;BME280;50692;53.314;-6.300;2023-02-12T02:43:10;103184.19;;;10.42;60.21
64368;BME280;50692;53.314;-6.300;2023-02-12T02:46:05;103186.00;;;10.37;60.10
64368;BME280;50692;53.314;-6.300;2023-02-12T02:48:58;103178.09;;;10.34;60.04
64368;BME280;50692;53.314;-6.300;2023-02-12T02:51:50;103182.53;;;10.35;60.12
64368;BME280;50692;53.314;-6.300;2023-02-12T02:54:47;103185.19;;;10.32;60.25
64368;BME280;50692;53.314;-6.300;2023-02-12T02:57:54;103192.19;;;10.35;60.13
64368;BME280;50692;53.314;-6.300;2023-02-12T03:00:46;103186.06;;;10.32;60.47
64368;BME280;50692;53.314;-6.300;2023-02-12T03:06:59;103177.25;;;10.30;60.73
64368;BME280;50692;53.314;-6.300;2023-02-12T03:09:58;103176.44;;;10.28;60.82
64368;BME280;50692;53.314;-6.300;2023-02-12T03:12:56;103184.38;;;10.25;61.10
64368;BME280;50692;53.314;-6.300;2023-02-12T03:15:52;103181.72;;;10.24;61.24
64368;BME280;50692;53.314;-6.300;2023-02-12T03:18:45;103180.84;;;10.26;61.43
64368;BME280;50692;53.314;-6.300;2023-02-12T03:21:50;103171.19;;;10.25;61.57
64368;BME280;50692;53.314;-6.300;2023-02-12T03:24:42;103167.72;;;10.16;61.63
64368;BME280;50692;53.314;-6.300;2023-02-12T03:27:47;103172.91;;;10.23;61.63
64368;BME280;50692;53.314;-6.300;2023-02-12T03:30:44;103170.31;;;10.20;61.90
64368;BME280;50692;53.314;-6.300;2023-02-12T03:45:59;103152.78;;;10.13;62.75
64368;BME280;50692;53.314;-6.300;2023-02-12T03:49:01;103161.63;;;10.11;63.14
64368;BME280;50692;53.314;-6.300;2023-02-12T03:51:48;103152.75;;;10.16;62.92
64368;BME280;50692;53.314;-6.300;2023-02-12T03:54:34;103153.66;;;10.14;63.34
64368;BME280;50692;53.314;-6.300;2023-02-12T03:57:24;103154.50;;;10.16;63.24
64368;BME280;50692;53.314;-6.300;2023-02-12T04:00:19;103149.25;;;10.13;63.74
64368;BME280;50692;53.314;-6.300;2023-02-12T04:03:06;103149.22;;;10.16;63.61
64368;BME280;50692;53.314;-6.300;2023-02-12T04:05:52;103151.88;;;10.16;63.91
64368;BME280;50692;53.314;-6.300;2023-02-12T04:08:37;103141.41;;;10.08;63.85
64368;BME280;50692;53.314;-6.300;2023-02-12T04:11:58;103149.22;;;10.16;64.02
64368;BME280;50692;53.314;-6.300;2023-02-12T04:18:11;103150.09;;;10.16;64.30
64368;BME280;50692;53.314;-6.300;2023-02-12T04:21:31;103142.25;;;10.08;64.47
64368;BME280;50692;53.314;-6.300;2023-02-12T04:24:31;103145.78;;;10.11;64.70
64368;BME280;50692;53.314;-6.300;2023-02-12T04:27:28;103136.03;;;10.13;64.65
64368;BME280;50692;53.314;-6.300;2023-02-12T04:30:20;103140.50;;;10.11;64.76
64368;BME280;50692;53.314;-6.300;2023-02-12T04:33:10;103139.63;;;10.10;64.98
64368;BME280;50692;53.314;-6.300;2023-02-12T04:36:04;103145.78;;;10.11;65.01
64368;BME280;50692;53.314;-6.300;2023-02-12T04:38:58;103155.47;;;10.10;65.45
64368;BME280;50692;53.314;-6.300;2023-02-12T04:41:45;103144.03;;;10.08;65.38
64368;BME280;50692;53.314;-6.300;2023-02-12T04:44:34;103157.22;;;10.11;65.48
64368;BME280;50692;53.314;-6.300;2023-02-12T04:47:21;103158.16;;;10.07;65.75
64368;BME280;50692;53.314;-6.300;2023-02-12T04:50:08;103154.59;;;10.08;65.70
64368;BME280;50692;53.314;-6.300;2023-02-12T04:52:53;103157.28;;;10.05;65.55
64368;BME280;50692;53.314;-6.300;2023-02-12T04:55:39;103174.84;;;10.11;65.57
64368;BME280;50692;53.314;-6.300;2023-02-12T04:58:25;103174.84;;;10.11;65.62
64368;BME280;50692;53.314;-6.300;2023-02-12T05:01:11;103170.47;;;10.08;65.67
64368;BME280;50692;53.314;-6.300;2023-02-12T05:03:57;103165.19;;;10.08;65.92
64368;BME280;50692;53.314;-6.300;2023-02-12T05:06:44;103166.97;;;10.04;66.01
64368;BME280;50692;53.314;-6.300;2023-02-12T05:09:30;103165.28;;;10.00;66.14
64368;BME280;50692;53.314;-6.300;2023-02-12T05:12:17;103167.88;;;10.02;66.19
64368;BME280;50692;53.314;-6.300;2023-02-12T05:15:03;103170.56;;;10.00;66.03
64368;BME280;50692;53.314;-6.300;2023-02-12T05:17:48;103179.34;;;10.01;66.05
64368;BME280;50692;53.314;-6.300;2023-02-12T05:20:34;103172.31;;;10.00;66.05
64368;BME280;50692;53.314;-6.300;2023-02-12T05:23:20;103178.47;;;10.00;66.08
64368;BME280;50692;53.314;-6.300;2023-02-12T05:26:10;103174.03;;;10.02;65.91
64368;BME280;50692;53.314;-6.300;2023-02-12T05:28:56;103170.53;;;10.03;65.84
64368;BME280;50692;53.314;-6.300;2023-02-12T05:31:42;103170.56;;;9.99;65.91
64368;BME280;50692;53.314;-6.300;2023-02-12T05:34:28;103171.47;;;9.98;65.89
64368;BME280;50692;53.314;-6.300;2023-02-12T05:37:14;103169.72;;;9.95;65.88
64368;BME280;50692;53.314;-6.300;2023-02-12T05:40:02;103170.59;;;9.97;65.69
64368;BME280;50692;53.314;-6.300;2023-02-12T05:42:48;103168.84;;;9.96;65.79
64368;BME280;50692;53.314;-6.300;2023-02-12T05:45:34;103163.56;;;9.95;65.64
64368;BME280;50692;53.314;-6.300;2023-02-12T05:48:19;103160.88;;;9.98;65.75
64368;BME280;50692;53.314;-6.300;2023-02-12T05:51:17;103163.53;;;9.99;65.76
64368;BME280;50692;53.314;-6.300;2023-02-12T05:54:05;103162.63;;;9.99;65.77
64368;BME280;50692;53.314;-6.300;2023-02-12T05:56:51;103167.03;;;10.00;65.71
64368;BME280;50692;53.314;-6.300;2023-02-12T05:59:38;103165.28;;;10.00;65.65
64368;BME280;50692;53.314;-6.300;2023-02-12T06:02:23;103160.81;;;10.02;65.71
64368;BME280;50692;53.314;-6.300;2023-02-12T06:05:09;103162.59;;;10.02;65.91
64368;BME280;50692;53.314;-6.300;2023-02-12T06:07:55;103164.41;;;9.98;65.95
64368;BME280;50692;53.314;-6.300;2023-02-12T06:10:41;103160.09;;;9.93;66.13
64368;BME280;50692;53.314;-6.300;2023-02-12T06:13:27;103164.47;;;9.94;66.06
64368;BME280;50692;53.314;-6.300;2023-02-12T06:16:26;103156.56;;;9.91;66.40
64368;BME280;50692;53.314;-6.300;2023-02-12T06:19:13;103153.13;;;9.85;66.57
64368;BME280;50692;53.314;-6.300;2023-02-12T06:21:59;103150.44;;;9.87;66.60
64368;BME280;50692;53.314;-6.300;2023-02-12T06:24:45;103146.06;;;9.84;66.99
64368;BME280;50692;53.314;-6.300;2023-02-12T06:27:30;103142.63;;;9.78;67.04
64368;BME280;50692;53.314;-6.300;2023-02-12T06:30:16;103149.59;;;9.85;67.24
64368;BME280;50692;53.314;-6.300;2023-02-12T06:33:02;103147.84;;;9.82;67.00
64368;BME280;50692;53.314;-6.300;2023-02-12T06:35:48;103145.16;;;9.87;66.98
64368;BME280;50692;53.314;-6.300;2023-02-12T06:38:34;103143.41;;;9.86;66.99
64368;BME280;50692;53.314;-6.300;2023-02-12T06:41:21;103147.78;;;9.90;66.73
64368;BME280;50692;53.314;-6.300;2023-02-12T06:44:07;103146.00;;;9.92;66.51
64368;BME280;50692;53.314;-6.300;2023-02-12T06:46:53;103138.91;;;9.94;66.51
64368;BME280;50692;53.314;-6.300;2023-02-12T06:49:39;103143.34;;;9.91;66.68
64368;BME280;50692;53.314;-6.300;2023-02-12T06:52:24;103145.19;;;9.85;67.32
64368;BME280;50692;53.314;-6.300;2023-02-12T06:55:10;103134.63;;;9.84;67.50
64368;BME280;50692;53.314;-6.300;2023-02-12T06:57:56;103139.03;;;9.85;67.69
64368;BME280;50692;53.314;-6.300;2023-02-12T07:00:42;103132.78;;;9.91;67.73
64368;BME280;50692;53.314;-6.300;2023-02-12T07:03:27;103139.84;;;9.90;67.97
64368;BME280;50692;53.314;-6.300;2023-02-12T07:06:13;103135.44;;;9.92;67.81
64368;BME280;50692;53.314;-6.300;2023-02-12T07:09:00;103119.63;;;9.84;67.74
64368;BME280;50692;53.314;-6.300;2023-02-12T07:11:45;103134.53;;;9.93;67.74
64368;BME280;50692;53.314;-6.300;2023-02-12T07:14:31;103140.72;;;9.92;67.57
64368;BME280;50692;53.314;-6.300;2023-02-12T07:17:17;103141.56;;;9.94;67.72
64368;BME280;50692;53.314;-6.300;2023-02-12T07:20:04;103138.09;;;9.89;67.93
64368;BME280;50692;53.314;-6.300;2023-02-12T07:22:50;103136.34;;;9.90;67.80
64368;BME280;50692;53.314;-6.300;2023-02-12T07:25:35;103144.19;;;9.96;67.90
64368;BME280;50692;53.314;-6.300;2023-02-12T07:28:21;103145.06;;;9.96;68.06
64368;BME280;50692;53.314;-6.300;2023-02-12T07:31:18;103149.47;;;9.96;68.65
64368;BME280;50692;53.314;-6.300;2023-02-12T07:34:04;103151.25;;;9.94;68.84
64368;BME280;50692;53.314;-6.300;2023-02-12T07:36:50;103151.25;;;9.94;68.89
64368;BME280;50692;53.314;-6.300;2023-02-12T07:39:36;103158.28;;;9.96;69.00
64368;BME280;50692;53.314;-6.300;2023-02-12T07:42:22;103162.69;;;9.94;69.45
64368;BME280;50692;53.314;-6.300;2023-02-12T07:45:08;103161.84;;;9.92;69.90
64368;BME280;50692;53.314;-6.300;2023-02-12T07:47:54;103160.97;;;9.90;70.04
64368;BME280;50692;53.314;-6.300;2023-02-12T07:50:40;103165.38;;;9.88;70.03
64368;BME280;50692;53.314;-6.300;2023-02-12T07:53:25;103168.00;;;9.93;69.99
64368;BME280;50692;53.314;-6.300;2023-02-12T07:56:14;103158.38;;;9.87;70.26
64368;BME280;50692;53.314;-6.300;2023-02-12T07:59:03;103172.41;;;9.91;70.15
64368;BME280;50692;53.314;-6.300;2023-02-12T08:01:51;103174.19;;;9.90;70.11
64368;BME280;50692;53.314;-6.300;2023-02-12T08:04:37;103178.53;;;9.94;69.97
64368;BME280;50692;53.314;-6.300;2023-02-12T08:07:23;103182.97;;;9.94;69.92
64368;BME280;50692;53.314;-6.300;2023-02-12T08:10:10;103167.19;;;9.86;69.76
64368;BME280;50692;53.314;-6.300;2023-02-12T08:12:56;103182.94;;;9.97;69.87
64368;BME280;50692;53.314;-6.300;2023-02-12T08:15:41;103185.56;;;9.95;69.90
64368;BME280;50692;53.314;-6.300;2023-02-12T08:18:30;103178.59;;;9.88;69.90
64368;BME280;50692;53.314;-6.300;2023-02-12T08:21:18;103181.25;;;9.88;69.87
64368;BME280;50692;53.314;-6.300;2023-02-12T08:24:04;103192.63;;;9.96;69.77
64368;BME280;50692;53.314;-6.300;2023-02-12T08:26:51;103184.66;;;9.98;69.79
64368;BME280;50692;53.314;-6.300;2023-02-12T08:29:36;103187.31;;;9.99;69.78
64368;BME280;50692;53.314;-6.300;2023-02-12T08:32:22;103189.97;;;9.99;69.55
64368;BME280;50692;53.314;-6.300;2023-02-12T08:35:08;103188.19;;;10.00;69.69
64368;BME280;50692;53.314;-6.300;2023-02-12T08:37:54;103195.22;;;10.01;69.78
64368;BME280;50692;53.314;-6.300;2023-02-12T08:40:40;103204.88;;;10.02;69.87
64368;BME280;50692;53.314;-6.300;2023-02-12T08:43:26;103199.63;;;10.00;69.95
64368;BME280;50692;53.314;-6.300;2023-02-12T08:46:14;103191.66;;;10.02;69.92
64368;BME280;50692;53.314;-6.300;2023-02-12T08:49:02;103187.31;;;9.99;69.90
64368;BME280;50692;53.314;-6.300;2023-02-12T08:51:51;103194.34;;;10.00;70.02
64368;BME280;50692;53.314;-6.300;2023-02-12T08:54:37;103187.34;;;9.96;69.92
64368;BME280;50692;53.314;-6.300;2023-02-12T08:57:23;103188.16;;;10.03;69.77
64368;BME280;50692;53.314;-6.300;2023-02-12T09:00:09;103186.41;;;10.00;69.70
64368;BME280;50692;53.314;-6.300;2023-02-12T09:02:55;103176.66;;;10.05;69.39
64368;BME280;50692;53.314;-6.300;2023-02-12T09:05:41;103182.78;;;10.09;69.32
64368;BME280;50692;53.314;-6.300;2023-02-12T09:08:27;103182.75;;;10.14;69.31
64368;BME280;50692;53.314;-6.300;2023-02-12T09:11:18;103174.75;;;10.17;69.20
64368;BME280;50692;53.314;-6.300;2023-02-12T09:14:07;103187.91;;;10.23;69.16
64368;BME280;50692;53.314;-6.300;2023-02-12T09:16:53;103191.44;;;10.22;69.08
64368;BME280;50692;53.314;-6.300;2023-02-12T09:19:41;103181.75;;;10.22;69.04
64368;BME280;50692;53.314;-6.300;2023-02-12T09:22:27;103176.44;;;10.27;68.98
64368;BME280;50692;53.314;-6.300;2023-02-12T09:25:13;103171.03;;;10.35;68.73
64368;BME280;50692;53.314;-6.300;2023-02-12T09:28:02;103169.28;;;10.33;68.89
64368;BME280;50692;53.314;-6.300;2023-02-12T09:30:47;103165.72;;;10.38;68.60
64368;BME280;50692;53.314;-6.300;2023-02-12T09:33:33;103160.47;;;10.35;68.06
64368;BME280;50692;53.314;-6.300;2023-02-12T09:36:19;103150.88;;;10.29;67.93
64368;BME280;50692;53.314;-6.300;2023-02-12T09:39:05;103150.81;;;10.32;67.85
64368;BME280;50692;53.314;-6.300;2023-02-12T09:45:12;103140.19;;;10.37;67.55
64368;BME280;50692;53.314;-6.300;2023-02-12T09:51:27;103143.66;;;10.40;67.38
64368;BME280;50692;53.314;-6.300;2023-02-12T09:54:19;103135.91;;;10.28;67.03
64368;BME280;50692;53.314;-6.300;2023-02-12T09:57:15;103134.06;;;10.33;66.83
64368;BME280;50692;53.314;-6.300;2023-02-12T10:03:14;103122.50;;;10.40;65.80
64368;BME280;50692;53.314;-6.300;2023-02-12T10:06:04;103130.16;;;10.59;65.73
64368;BME280;50692;53.314;-6.300;2023-02-12T10:09:17;103132.75;;;10.63;64.76
64368;BME280;50692;53.314;-6.300;2023-02-12T10:15:26;103149.19;;;10.84;63.64
64368;BME280;50692;53.314;-6.300;2023-02-12T10:21:54;103128.19;;;12.20;60.43
64368;BME280;50692;53.314;-6.300;2023-02-12T10:28:00;103127.53;;;12.88;56.84
64368;BME280;50692;53.314;-6.300;2023-02-12T10:30:52;103131.44;;;13.09;55.15
64368;BME280;50692;53.314;-6.300;2023-02-12T10:33:45;103129.44;;;13.18;54.58
64368;BME280;50692;53.314;-6.300;2023-02-12T10:36:42;103122.69;;;13.39;53.50
64368;BME280;50692;53.314;-6.300;2023-02-12T10:39:32;103121.09;;;13.66;52.24
64368;BME280;50692;53.314;-6.300;2023-02-12T10:42:35;103123.03;;;13.60;50.79
64368;BME280;50692;53.314;-6.300;2023-02-12T10:45:28;103122.38;;;13.84;51.11
64368;BME280;50692;53.314;-6.300;2023-02-12T10:48:29;103129.50;;;13.51;50.40
64368;BME280;50692;53.314;-6.300;2023-02-12T10:54:37;103125.38;;;12.68;51.67
64368;BME280;50692;53.314;-6.300;2023-02-12T10:57:26;103102.34;;;12.30;52.78
64368;BME280;50692;53.314;-6.300;2023-02-12T11:00:31;103119.06;;;11.91;54.12
64368;BME280;50692;53.314;-6.300;2023-02-12T11:03:20;103117.63;;;11.73;54.55
64368;BME280;50692;53.314;-6.300;2023-02-12T11:08:58;103114.00;;;11.77;54.83
64368;BME280;50692;53.314;-6.300;2023-02-12T11:11:44;103105.00;;;11.89;54.48
64368;BME280;50692;53.314;-6.300;2023-02-12T11:14:31;103107.00;;;11.75;54.39
64368;BME280;50692;53.314;-6.300;2023-02-12T11:17:34;103123.78;;;11.74;54.45
64368;BME280;50692;53.314;-6.300;2023-02-12T11:20:29;103130.16;;;11.64;54.71
64368;BME280;50692;53.314;-6.300;2023-02-12T11:23:35;103112.47;;;11.66;54.73
64368;BME280;50692;53.314;-6.300;2023-02-12T11:26:25;103128.38;;;11.66;54.80
64368;BME280;50692;53.314;-6.300;2023-02-12T11:29:20;103109.81;;;11.66;54.59
64368;BME280;50692;53.314;-6.300;2023-02-12T11:32:19;103114.16;;;11.70;54.48
64368;BME280;50692;53.314;-6.300;2023-02-12T11:35:16;103097.69;;;11.54;55.08
64368;BME280;50692;53.314;-6.300;2023-02-12T11:38:20;103098.50;;;11.58;54.75
64368;BME280;50692;53.314;-6.300;2023-02-12T11:41:35;103096.84;;;11.53;55.45
64368;BME280;50692;53.314;-6.300;2023-02-12T11:44:25;103096.75;;;11.57;55.33
64368;BME280;50692;53.314;-6.300;2023-02-12T11:47:23;103083.44;;;11.61;55.61
64368;BME280;50692;53.314;-6.300;2023-02-12T11:50:28;103088.47;;;11.75;56.04
64368;BME280;50692;53.314;-6.300;2023-02-12T11:56:13;103070.63;;;11.83;55.24
64368;BME280;50692;53.314;-6.300;2023-02-12T11:59:10;103092.50;;;11.94;55.61
64368;BME280;50692;53.314;-6.300;2023-02-12T12:02:02;103074.75;;;11.98;55.03
64368;BME280;50692;53.314;-6.300;2023-02-12T12:04:52;103076.31;;;12.08;55.26
64368;BME280;50692;53.314;-6.300;2023-02-12T12:07:40;103076.25;;;12.11;54.57
64368;BME280;50692;53.314;-6.300;2023-02-12T12:10:41;103071.75;;;12.13;54.58
64368;BME280;50692;53.314;-6.300;2023-02-12T12:13:34;103066.22;;;12.24;53.79
64368;BME280;50692;53.314;-6.300;2023-02-12T12:16:32;103055.91;;;12.51;53.29
64368;BME280;50692;53.314;-6.300;2023-02-12T12:20:02;103037.28;;;12.88;52.71
64368;BME280;50692;53.314;-6.300;2023-02-12T12:23:04;103041.00;;;13.15;51.21
64368;BME280;50692;53.314;-6.300;2023-02-12T12:26:05;103037.50;;;13.47;50.14
64368;BME280;50692;53.314;-6.300;2023-02-12T12:29:00;103032.91;;;13.83;49.66
64368;BME280;50692;53.314;-6.300;2023-02-12T12:32:00;103028.09;;;14.52;47.71
64368;BME280;50692;53.314;-6.300;2023-02-12T12:34:47;103015.41;;;15.37;46.16
64368;BME280;50692;53.314;-6.300;2023-02-12T12:37:37;103011.41;;;16.19;44.51
64368;BME280;50692;53.314;-6.300;2023-02-12T12:40:57;103005.25;;;16.82;42.30
64368;BME280;50692;53.314;-6.300;2023-02-12T13:14:43;102965.63;;;17.12;39.02
64368;BME280;50692;53.314;-6.300;2023-02-12T13:17:38;102968.94;;;17.77;38.62
64368;BME280;50692;53.314;-6.300;2023-02-12T13:23:54;102969.25;;;18.07;38.10
64368;BME280;50692;53.314;-6.300;2023-02-12T13:29:54;102971.13;;;19.10;36.76
64368;BME280;50692;53.314;-6.300;2023-02-12T13:33:01;102969.81;;;19.51;36.43
64368;BME280;50692;53.314;-6.300;2023-02-12T13:35:53;102971.00;;;19.78;35.98
64368;BME280;50692;53.314;-6.300;2023-02-12T13:39:26;102963.22;;;19.40;36.18
64368;BME280;50692;53.314;-6.300;2023-02-12T13:42:19;102963.31;;;19.39;36.18
64368;BME280;50692;53.314;-6.300;2023-02-12T14:00:11;102953.22;;;17.88;39.14
64368;BME280;50692;53.314;-6.300;2023-02-12T14:02:53;102956.63;;;17.33;40.23
64368;BME280;50692;53.314;-6.300;2023-02-12T14:05:40;102958.94;;;17.22;40.95
64368;BME280;50692;53.314;-6.300;2023-02-12T14:08:50;102952.41;;;17.48;40.72
64368;BME280;50692;53.314;-6.300;2023-02-12T14:11:50;102953.63;;;18.16;39.43
64368;BME280;50692;53.314;-6.300;2023-02-12T14:23:29;102932.72;;;20.06;35.71
64368;BME280;50692;53.314;-6.300;2023-02-12T14:26:17;102924.25;;;19.82;36.12
64368;BME280;50692;53.314;-6.300;2023-02-12T14:29:15;102917.50;;;19.10;37.01
64368;BME280;50692;53.314;-6.300;2023-02-12T14:50:14;102897.06;;;16.71;42.58
64368;BME280;50692;53.314;-6.300;2023-02-12T14:53:22;102919.59;;;16.23;44.35
64368;BME280;50692;53.314;-6.300;2023-02-12T14:56:09;102920.53;;;15.78;45.57
64368;BME280;50692;53.314;-6.300;2023-02-12T14:58:57;102916.44;;;15.70;45.77
64368;BME280;50692;53.314;-6.300;2023-02-12T15:01:45;102924.38;;;15.48;46.08
64368;BME280;50692;53.314;-6.300;2023-02-12T15:04:36;102907.78;;;15.40;46.54
64368;BME280;50692;53.314;-6.300;2023-02-12T15:07:32;102897.97;;;15.42;46.58
64368;BME280;50692;53.314;-6.300;2023-02-12T15:10:23;102902.88;;;15.52;46.40
64368;BME280;50692;53.314;-6.300;2023-02-12T15:13:25;102911.19;;;16.12;45.42
64368;BME280;50692;53.314;-6.300;2023-02-12T15:22:38;102903.13;;;17.16;42.40
64368;BME280;50692;53.314;-6.300;2023-02-12T15:25:31;102905.13;;;17.30;41.97
64368;BME280;50692;53.314;-6.300;2023-02-12T15:28:24;102915.13;;;17.45;41.43
64368;BME280;50692;53.314;-6.300;2023-02-12T15:31:16;102909.47;;;16.72;42.99
64368;BME280;50692;53.314;-6.300;2023-02-12T15:34:02;102916.13;;;15.99;44.87
64368;BME280;50692;53.314;-6.300;2023-02-12T15:36:49;102906.47;;;15.28;46.61
64368;BME280;50692;53.314;-6.300;2023-02-12T15:39:40;102922.91;;;14.92;47.66
64368;BME280;50692;53.314;-6.300;2023-02-12T15:42:33;102915.22;;;14.31;48.86
64368;BME280;50692;53.314;-6.300;2023-02-12T15:53:51;102919.22;;;13.34;51.30
64368;BME280;50692;53.314;-6.300;2023-02-12T15:56:39;102919.44;;;13.56;50.80
64368;BME280;50692;53.314;-6.300;2023-02-12T15:59:27;102913.19;;;13.57;50.44
64368;BME280;50692;53.314;-6.300;2023-02-12T16:02:24;102904.47;;;13.22;50.93
64368;BME280;50692;53.314;-6.300;2023-02-12T16:05:14;102905.25;;;12.94;51.77
64368;BME280;50692;53.314;-6.300;2023-02-12T16:08:01;102910.13;;;13.10;51.56
64368;BME280;50692;53.314;-6.300;2023-02-12T16:10:49;102907.69;;;13.02;51.77
64368;BME280;50692;53.314;-6.300;2023-02-12T16:13:36;102917.28;;;13.08;51.89
64368;BME280;50692;53.314;-6.300;2023-02-12T16:16:23;102916.53;;;13.63;50.70
64368;BME280;50692;53.314;-6.300;2023-02-12T16:19:29;102910.44;;;13.88;49.86
64368;BME280;50692;53.314;-6.300;2023-02-12T16:22:28;102912.06;;;13.65;50.08
64368;BME280;50692;53.314;-6.300;2023-02-12T16:25:22;102924.13;;;13.46;50.34
64368;BME280;50692;53.314;-6.300;2023-02-12T16:28:18;102913.56;;;13.13;51.25
64368;BME280;50692;53.314;-6.300;2023-02-12T16:31:11;102926.41;;;12.65;52.71
64368;BME280;50692;53.314;-6.300;2023-02-12T16:33:58;102916.72;;;12.30;53.95
64368;BME280;50692;53.314;-6.300;2023-02-12T16:36:45;102919.91;;;12.07;54.94
64368;BME280;50692;53.314;-6.300;2023-02-12T16:42:55;102917.75;;;11.87;55.75
64368;BME280;50692;53.314;-6.300;2023-02-12T16:45:41;102905.63;;;11.75;56.21
64368;BME280;50692;53.314;-6.300;2023-02-12T16:48:27;102910.13;;;11.71;56.45
64368;BME280;50692;53.314;-6.300;2023-02-12T16:54:31;102890.06;;;11.60;57.11
64368;BME280;50692;53.314;-6.300;2023-02-12T16:57:17;102893.56;;;11.62;56.92
64368;BME280;50692;53.314;-6.300;2023-02-12T17:00:07;102892.78;;;11.57;57.05
64368;BME280;50692;53.314;-6.300;2023-02-12T17:02:54;102893.06;;;11.44;57.31
64368;BME280;50692;53.314;-6.300;2023-02-12T17:05:41;102895.72;;;11.44;57.33
64368;BME280;50692;53.314;-6.300;2023-02-12T17:08:29;102901.94;;;11.42;57.61
64368;BME280;50692;53.314;-6.300;2023-02-12T17:11:15;102903.13;;;11.28;57.82
64368;BME280;50692;53.314;-6.300;2023-02-12T17:14:02;102913.94;;;11.18;58.14
64368;BME280;50692;53.314;-6.300;2023-02-12T17:16:48;102919.66;;;10.96;58.72
64368;BME280;50692;53.314;-6.300;2023-02-12T17:19:34;102924.25;;;10.87;59.09
64368;BME280;50692;53.314;-6.300;2023-02-12T17:22:23;102924.25;;;10.85;59.16